메인 페이지
METAR-TAF:

METAR-TAF

공항 :

Fort Smith, 아칸소, 미국

위도: 35-20-01N, 경도: 094-21-54W, 고도: 142m

현재 날씨관측

예보는 1 시간 11분 전, 11:51시(UTC)에 발표되었습니다.
북동3kt
온도 13°C
습도 94%
기압 1017 hPa
시정: 0.8km
안개

METAR: KFSM 061151Z 05003KT 1/2SM R25/1800V2600FT FG VV002 13/12 A3004 RMK AO2

시각: 08:02 (13:02 UTC)

예보

예보는 1 시간 31분 전, 11:31시(UTC)에 발표되었습니다.
예보 대상 시간: 06일 12시부터 07일 12시까지 (UTC)
동북동4kt
시정: 0.4km
고도 200ft 상공
안개
일시적
06일 12시부터 06일 14시까지 (UTC)
시정: 4.8km
고도 500ft 상공 구름 보통
고도 2500ft 상공 구름 많음
박무
06일 1500시부터 (UTC)
동남동8kt
시정: 10km
고도 2500ft 상공 구름 많음
06일 1900시부터 (UTC)
9kt
시정: 10km
고도 3500ft 상공 구름 많음
07일 0200시부터 (UTC)
동북동4kt
시정: 10km
고도 3500ft 상공 구름 보통
고도 25000ft 상공 구름 많음

TAF: KFSM 061131Z 0612/0712 07004KT 1/4SM FG VV002 TEMPO 0612/0614 3SM BR SCT005 BKN025 FM061500 12008KT P6SM BKN025 FM061900 19009KT P6SM BKN035 FM070200 07004KT P6SM SCT035 BKN250

4,000개 이상의 공항 관측 자료 및 예보 (METAR 및 TAF 보고).

지도상에서 검색 가능한 기상관측소가 노란 점과 빨간 점으로 표시되어 있습니다.

기상관측소 명을 보려면 표시 위로 마우스를 이동하세요.

날씨 관측과 예보를 보려면 클릭하세요.

지도 변경 : 확대하려면 엑스 표시가 있는 녹색 버튼, 축소하려면 빼기 표시가 있는 녹색 버튼, 다음 페이지의 지도를 보려면 녹색 화살표를 클릭하세요.


METAR-TAF: